Time;durP1;ratioP1;P1;durP2;ratioP2;P2;SDS_P1;SDS_P2;PMS_P1;PMS_P2;Temp;Humidity;BMP_temperature;BMP_pressure;BME280_temperature;BME280_humidity;BME280_pressure;Samples;Min_cycle;Max_cycle;Signal;HPM_P1;HPM_P2
2022/08/11 00:01:24;;;;;;;8.50;7.60;;;;;;;16.97;100.00;100439.94;1725966;83;21053;-68
2022/08/11 00:04:01;;;;;;;10.50;7.62;;;;;;;16.95;100.00;100449.33;1726010;82;21049;-69
2022/08/11 00:06:34;;;;;;;11.57;7.85;;;;;;;16.91;100.00;100446.49;1726085;82;21029;-68
2022/08/11 00:09:04;;;;;;;12.50;7.53;;;;;;;16.89;100.00;100443.06;1725872;83;21041;-68
2022/08/11 00:11:45;;;;;;;9.13;7.10;;;;;;;16.87;100.00;100438.30;1725195;82;21135;-68
2022/08/11 00:14:16;;;;;;;9.85;7.17;;;;;;;16.83;100.00;100433.25;1725920;83;21010;-68
2022/08/11 00:16:44;;;;;;;12.70;7.72;;;;;;;16.81;100.00;100426.68;1726285;82;21100;-69
2022/08/11 00:19:11;;;;;;;11.18;7.87;;;;;;;16.77;100.00;100423.77;1725980;83;21049;-67
2022/08/11 00:21:41;;;;;;;11.78;7.90;;;;;;;16.73;100.00;100415.62;1726184;83;21084;-68
2022/08/11 00:24:07;;;;;;;10.80;8.18;;;;;;;16.68;100.00;100404.36;1725725;82;21210;-68
2022/08/11 00:26:35;;;;;;;12.70;8.55;;;;;;;16.63;100.00;100403.78;1725933;83;21582;-70
2022/08/11 00:29:10;;;;;;;10.95;8.13;;;;;;;16.61;100.00;100407.00;1715642;82;22158;-67
2022/08/11 00:31:36;;;;;;;11.83;8.08;;;;;;;16.57;100.00;100403.20;1712980;83;21570;-68
2022/08/11 00:34:04;;;;;;;9.80;8.33;;;;;;;16.56;100.00;100400.61;1713100;83;21046;-68
2022/08/11 00:36:51;;;;;;;9.50;7.87;;;;;;;16.52;100.00;100394.64;1679589;83;21206;-68
2022/08/11 00:39:20;;;;;;;13.15;7.95;;;;;;;16.51;100.00;100392.91;1712931;83;21696;-67
2022/08/11 00:42:07;;;;;;;9.80;7.83;;;;;;;16.50;100.00;100396.52;1713293;83;21716;-67
2022/08/11 00:45:01;;;;;;;12.65;7.08;;;;;;;16.51;100.00;100406.67;1713064;83;22105;-69
2022/08/11 00:48:04;;;;;;;8.35;6.75;;;;;;;16.51;100.00;100410.66;1712802;83;21030;-68
2022/08/11 00:50:58;;;;;;;10.03;7.67;;;;;;;16.50;100.00;100413.80;1713069;82;21240;-68
2022/08/11 00:54:03;;;;;;;9.48;8.48;;;;;;;16.52;100.00;100415.05;1710279;83;21326;-72
2022/08/11 00:56:57;;;;;;;13.53;8.15;;;;;;;16.52;100.00;100410.59;1703087;84;21069;-67
2022/08/11 00:59:55;;;;;;;13.65;7.75;;;;;;;16.49;100.00;100413.40;1707370;84;21042;-68
2022/08/11 01:02:39;;;;;;;10.58;8.03;;;;;;;16.50;100.00;100413.80;1706965;84;21034;-68
2022/08/11 01:05:46;;;;;;;12.82;7.83;;;;;;;16.48;100.00;100416.17;1707446;84;21482;-68
2022/08/11 01:08:36;;;;;;;10.90;8.50;;;;;;;16.52;100.00;100415.91;1706839;84;21530;-69
2022/08/11 01:11:37;;;;;;;11.93;7.75;;;;;;;16.52;100.00;100409.73;1706555;83;21065;-69
2022/08/11 01:14:25;;;;;;;12.05;8.33;;;;;;;16.55;100.00;100418.38;1707104;82;21093;-68
2022/08/11 01:17:07;;;;;;;18.87;8.38;;;;;;;16.54;100.00;100422.44;1707068;84;21069;-68
2022/08/11 01:20:16;;;;;;;9.75;8.20;;;;;;;16.50;100.00;100409.81;1707089;84;21791;-68
2022/08/11 01:23:00;;;;;;;11.53;8.35;;;;;;;16.50;100.00;100416.46;1706340;83;21509;-67
2022/08/11 01:25:48;;;;;;;10.43;8.83;;;;;;;16.53;100.00;100405.64;1706899;84;21049;-68
2022/08/11 01:28:53;;;;;;;12.73;8.35;;;;;;;16.57;100.00;100395.70;1711413;83;21017;-68
2022/08/11 01:31:52;;;;;;;12.00;8.10;;;;;;;16.57;100.00;100400.54;1720303;82;21087;-67
2022/08/11 01:34:39;;;;;;;10.40;8.90;;;;;;;16.60;100.00;100401.31;1720369;83;21906;-68
2022/08/11 01:37:45;;;;;;;11.40;8.28;;;;;;;16.56;100.00;100401.50;1720315;83;21656;-68
2022/08/11 01:40:33;;;;;;;13.13;8.45;;;;;;;16.54;100.00;100391.42;1720387;83;21092;-68
2022/08/11 01:46:21;;;;;;;10.70;7.53;;;;;;;16.61;100.00;100387.05;1667073;83;21035;-68
2022/08/11 01:49:10;;;;;;;10.30;8.28;;;;;;;16.58;100.00;100390.27;1720574;83;21533;-68
2022/08/11 01:52:05;;;;;;;10.63;8.00;;;;;;;16.63;100.00;100383.84;1720419;83;21307;-67
2022/08/11 01:54:49;;;;;;;11.93;7.78;;;;;;;16.64;100.00;100378.44;1725570;83;21084;-68
2022/08/11 01:57:27;;;;;;;10.08;7.65;;;;;;;16.63;100.00;100370.55;1725910;83;21070;-67
2022/08/11 02:00:11;;;;;;;9.33;8.13;;;;;;;16.63;100.00;100373.20;1726369;83;21084;-69
2022/08/11 02:03:25;;;;;;;12.45;8.35;;;;;;;16.61;100.00;100369.33;1680846;84;21257;-68
2022/08/11 02:06:00;;;;;;;10.85;8.18;;;;;;;16.57;100.00;100363.31;1697080;84;21594;-68
2022/08/11 02:08:53;;;;;;;12.35;7.30;;;;;;;16.50;100.00;100359.30;1696908;84;21018;-67
2022/08/11 02:11:30;;;;;;;10.50;7.50;;;;;;;16.50;100.00;100367.28;1696904;84;21047;-67
2022/08/11 02:14:22;;;;;;;9.93;6.97;;;;;;;16.52;100.00;100378.69;1696962;83;21048;-67
2022/08/11 02:17:14;;;;;;;10.43;8.03;;;;;;;16.51;100.00;100386.26;1696982;84;21594;-68
2022/08/11 02:26:21;;;;;;;10.05;7.47;;;;;;;16.50;100.00;100383.23;1697207;84;21065;-66
2022/08/11 02:29:23;;;;;;;13.45;8.03;;;;;;;16.50;100.00;100386.37;1691721;83;21084;-67
2022/08/11 02:35:22;;;;;;;13.90;7.65;;;;;;;16.47;100.00;100378.10;1684527;85;21054;-69
2022/08/11 02:38:26;;;;;;;17.35;8.23;;;;;;;16.48;100.00;100372.30;1684931;85;21117;-67
2022/08/11 02:44:32;;;;;;;11.80;8.35;;;;;;;16.42;100.00;100377.48;1684746;84;21061;-69
2022/08/11 02:47:18;;;;;;;9.60;7.30;;;;;;;16.39;100.00;100372.35;1684485;85;21918;-68
2022/08/11 02:49:59;;;;;;;8.78;7.47;;;;;;;16.36;100.00;100375.20;1682994;85;21069;-70
2022/08/11 02:52:50;;;;;;;11.28;7.62;;;;;;;16.29;100.00;100376.50;1685596;84;21070;-68
2022/08/11 02:55:48;;;;;;;12.85;8.05;;;;;;;16.27;100.00;100377.05;1707318;84;21121;-67
2022/08/11 02:58:39;;;;;;;9.50;7.45;;;;;;;16.20;100.00;100366.39;1706970;84;21069;-68
2022/08/11 03:01:27;;;;;;;13.53;8.23;;;;;;;16.19;100.00;100356.69;1697016;83;21113;-67
2022/08/11 03:04:07;;;;;;;10.55;8.03;;;;;;;16.20;100.00;100358.42;1684265;85;21065;-68
2022/08/11 03:07:00;;;;;;;13.43;8.50;;;;;;;16.16;100.00;100357.72;1684418;84;21083;-67
2022/08/11 03:09:38;;;;;;;11.83;8.70;;;;;;;16.18;100.00;100359.83;1684400;85;21636;-69
2022/08/11 03:18:27;;;;;;;10.55;8.73;;;;;;;16.19;100.00;100378.80;1684339;85;21045;-68
2022/08/11 03:21:14;;;;;;;9.35;7.37;;;;;;;16.15;100.00;100378.12;1683830;84;21057;-68
2022/08/11 03:24:03;;;;;;;11.40;7.70;;;;;;;16.15;100.00;100383.44;1684546;85;21160;-68
2022/08/11 03:26:44;;;;;;;10.60;8.53;;;;;;;16.17;100.00;100385.14;1684352;85;21098;-69
2022/08/11 03:29:51;;;;;;;12.85;9.03;;;;;;;16.19;100.00;100378.80;1689962;84;21211;-68
2022/08/11 03:35:43;;;;;;;13.50;8.23;;;;;;;16.21;100.00;100378.23;1696820;84;21125;-68
2022/08/11 03:38:15;;;;;;;8.05;6.83;;;;;;;16.28;100.00;100372.95;1695669;84;21284;-69
2022/08/11 03:44:37;;;;;;;10.48;6.83;;;;;;;16.33;100.00;100367.38;1696920;84;21163;-68
2022/08/11 03:47:57;;;;;;;12.80;7.72;;;;;;;16.32;100.00;100372.33;1696366;84;21065;-68
2022/08/11 03:50:58;;;;;;;9.58;7.97;;;;;;;16.32;100.00;100371.84;1696813;84;21069;-68
2022/08/11 03:54:08;;;;;;;12.45;8.50;;;;;;;16.34;100.00;100369.11;1707574;83;21732;-68
2022/08/11 03:57:26;;;;;;;7.73;6.40;;;;;;;16.37;100.00;100390.19;1720784;83;21124;-67
2022/08/11 04:00:24;;;;;;;10.28;7.20;;;;;;;16.36;100.00;100372.06;1720186;83;21155;-68
2022/08/11 04:03:31;;;;;;;10.43;8.10;;;;;;;16.36;100.00;100373.39;1720145;82;21089;-68
2022/08/11 04:06:42;;;;;;;11.00;8.33;;;;;;;16.38;100.00;100375.97;1720285;83;21029;-67
2022/08/11 04:09:45;;;;;;;11.28;8.30;;;;;;;16.37;100.00;100372.91;1660084;85;21123;-69
2022/08/11 04:12:54;;;;;;;10.72;7.35;;;;;;;16.42;100.00;100361.53;1716119;82;21124;-68
2022/08/11 04:16:00;;;;;;;11.65;7.75;;;;;;;16.44;100.00;100375.59;1720345;83;21128;-69
2022/08/11 04:19:24;;;;;;;11.95;8.40;;;;;;;16.43;100.00;100368.58;1720122;83;21140;-68
2022/08/11 04:22:24;;;;;;;14.38;8.78;;;;;;;16.47;100.00;100365.26;1720305;82;21076;-68
2022/08/11 04:25:30;;;;;;;11.48;8.50;;;;;;;16.51;100.00;100366.32;1720340;83;22098;-69
2022/08/11 04:28:26;;;;;;;10.18;8.25;;;;;;;16.49;100.00;100362.89;1720598;83;21601;-69
2022/08/11 04:31:22;;;;;;;9.38;8.23;;;;;;;16.63;100.00;100363.89;1707097;83;21177;-69
2022/08/11 04:34:17;;;;;;;15.15;8.88;;;;;;;16.71;100.00;100367.83;1706895;84;21058;-68
2022/08/11 04:40:39;;;;;;;12.65;8.20;;;;;;;16.80;100.00;100357.64;1707237;84;21120;-68
2022/08/11 04:43:31;;;;;;;10.10;7.80;;;;;;;16.84;100.00;100345.40;1707025;83;21085;-67
2022/08/11 04:46:06;;;;;;;14.35;8.43;;;;;;;16.81;100.00;100331.41;1672465;83;21496;-69
2022/08/11 05:01:54;;;;;;;12.55;8.70;;;;;;;17.03;100.00;100340.30;1684619;85;21100;-69
2022/08/11 05:08:06;;;;;;;17.25;10.65;;;;;;;17.24;100.00;100319.50;1684527;85;21035;-68
2022/08/11 05:11:08;;;;;;;10.28;8.45;;;;;;;17.34;100.00;100334.78;1679921;83;21041;-69
2022/08/11 05:37:08;;;;;;;14.35;9.05;;;;;;;18.60;100.00;100356.04;1696657;84;21620;-68
2022/08/11 05:58:02;;;;;;;11.00;7.67;;;;;;;19.70;100.00;100362.78;1756477;81;21603;-68
2022/08/11 06:00:29;;;;;;;11.22;7.20;;;;;;;19.81;100.00;100380.73;1756394;81;21029;-69
2022/08/11 06:02:59;;;;;;;7.62;6.42;;;;;;;19.93;100.00;100396.37;1756393;81;21717;-68
2022/08/11 06:05:33;;;;;;;9.37;6.77;;;;;;;20.16;100.00;100392.87;1756483;81;21014;-69
2022/08/11 06:08:01;;;;;;;8.05;6.50;;;;;;;20.33;100.00;100391.14;1756228;81;21040;-68
2022/08/11 06:10:39;;;;;;;8.05;6.22;;;;;;;20.51;100.00;100380.05;1756260;81;21099;-69
2022/08/11 06:13:07;;;;;;;8.35;6.05;;;;;;;20.63;100.00;100387.19;1756472;81;21063;-70
2022/08/11 06:15:37;;;;;;;8.18;6.25;;;;;;;20.67;100.00;100385.99;1756259;81;21507;-69
2022/08/11 06:18:04;;;;;;;12.23;6.05;;;;;;;20.72;100.00;100383.81;1726371;81;21032;-68
2022/08/11 06:20:35;;;;;;;6.55;5.30;;;;;;;20.77;100.00;100379.95;1756081;81;21009;-69
2022/08/11 06:23:03;;;;;;;8.08;5.30;;;;;;;20.77;100.00;100386.64;1755660;81;21489;-67
2022/08/11 06:25:34;;;;;;;8.73;6.45;;;;;;;20.80;100.00;100393.09;1755823;81;21055;-68
2022/08/11 06:28:05;;;;;;;10.32;5.92;;;;;;;20.78;100.00;100392.38;1756371;81;21146;-69
2022/08/11 06:30:41;;;;;;;7.15;6.22;;;;;;;20.72;100.00;100398.53;1756166;81;21059;-69
2022/08/11 06:33:18;;;;;;;6.33;5.72;;;;;;;20.72;100.00;100397.20;1756169;81;21559;-67
2022/08/11 06:36:02;;;;;;;8.38;6.12;;;;;;;20.70;100.00;100408.99;1756301;81;21041;-68
2022/08/11 06:39:07;;;;;;;6.87;6.05;;;;;;;20.62;100.00;100416.27;1756333;81;21056;-69
2022/08/11 06:42:06;;;;;;;9.13;6.22;;;;;;;20.46;100.00;100419.67;1693298;84;21137;-68
2022/08/11 06:44:42;;;;;;;10.38;6.42;;;;;;;20.25;100.00;100428.30;1750296;81;21032;-69
2022/08/11 06:47:11;;;;;;;9.63;6.72;;;;;;;20.13;100.00;100411.83;1756556;81;21123;-68
2022/08/11 06:52:36;;;;;;;7.05;6.17;;;;;;;20.02;100.00;100417.09;1756669;81;21020;-68
2022/08/11 07:00:26;;;;;;;7.87;5.75;;;;;;;19.91;100.00;100420.03;1756510;81;21134;-69
2022/08/11 07:00:28;;;;;;;8.88;6.05;;;;;;;19.62;100.00;100423.87;1733019;81;21093;-69
2022/08/11 07:03:02;;;;;;;7.75;6.47;;;;;;;19.59;100.00;100429.45;1755874;81;21004;-68
2022/08/11 07:05:43;;;;;;;6.95;5.03;;;;;;;19.51;100.00;100425.98;1756071;81;21630;-67
2022/08/11 07:28:54;;;;;;;7.65;6.40;;;;;;;19.17;100.00;100471.50;1755703;81;21555;-69
2022/08/11 07:29:00;;;;;;;10.32;6.75;;;;;;;18.72;100.00;100414.87;1756275;81;21528;-71
2022/08/11 07:31:36;;;;;;;11.18;6.67;;;;;;;18.60;100.00;100428.05;1755821;81;21064;-69
2022/08/11 07:34:26;;;;;;;12.18;6.97;;;;;;;18.39;100.00;100404.98;1728280;81;20989;-69
2022/08/11 07:36:55;;;;;;;10.75;7.10;;;;;;;18.34;100.00;100363.11;1756684;81;21310;-71
2022/08/11 07:39:32;;;;;;;8.70;6.70;;;;;;;18.29;100.00;100353.69;1756202;81;21060;-69
2022/08/11 07:42:01;;;;;;;11.43;7.35;;;;;;;18.28;100.00;100343.51;1728152;81;21020;-70
2022/08/11 07:44:28;;;;;;;11.53;6.87;;;;;;;18.27;100.00;100343.15;1723162;82;21041;-69
2022/08/11 07:52:32;;;;;;;14.90;7.10;;;;;;;18.24;100.00;100392.64;1743961;80;21049;-69
2022/08/11 07:55:07;;;;;;;15.03;6.67;;;;;;;18.37;100.00;100396.71;1773465;80;21030;-70
2022/08/11 08:19:43;;;;;;;6.50;5.42;;;;;;;19.25;100.00;100417.94;1773175;80;21560;-68
2022/08/11 08:22:13;;;;;;;6.90;5.55;;;;;;;19.23;100.00;100416.33;1773515;80;21069;-69
2022/08/11 08:24:40;;;;;;;9.80;5.85;;;;;;;19.36;100.00;100418.54;1752682;80;21053;-69
2022/08/11 08:27:11;;;;;;;8.85;5.75;;;;;;;19.44;100.00;100414.88;1773148;80;21049;-69
2022/08/11 08:32:22;;;;;;;10.88;6.33;;;;;;;19.39;100.00;100400.95;1773345;80;21060;-69
2022/08/11 08:34:50;;;;;;;8.23;6.25;;;;;;;19.36;100.00;100402.52;1772946;80;21076;-71
2022/08/11 08:37:25;;;;;;;12.55;7.30;;;;;;;19.31;100.00;100401.98;1752147;80;21010;-69
2022/08/11 08:39:52;;;;;;;10.43;7.60;;;;;;;19.32;100.00;100395.67;1773049;80;21044;-69
2022/08/11 08:42:26;;;;;;;8.38;7.25;;;;;;;19.34;100.00;100404.44;1773360;80;21211;-70
2022/08/11 08:45:05;;;;;;;9.48;6.42;;;;;;;19.36;100.00;100397.17;1775798;80;21029;-69
2022/08/11 08:47:40;;;;;;;9.00;7.72;;;;;;;19.34;100.00;100396.42;1774742;80;21032;-68
2022/08/11 08:50:12;;;;;;;9.03;6.65;;;;;;;19.43;100.00;100390.93;1776408;80;21056;-68
2022/08/11 08:52:46;;;;;;;16.27;7.97;;;;;;;19.47;100.00;100399.95;1743505;80;21053;-68
2022/08/11 08:55:17;;;;;;;11.45;7.50;;;;;;;19.53;100.00;100393.80;1745509;82;21211;-69
2022/08/11 08:57:43;;;;;;;10.28;8.30;;;;;;;19.55;100.00;100393.22;1745921;82;21077;-69
2022/08/11 09:00:10;;;;;;;25.75;10.08;;;;;;;19.49;100.00;100398.03;1745705;82;21016;-69
2022/08/11 09:02:37;;;;;;;15.08;7.58;;;;;;;19.54;100.00;100402.20;1694328;82;21036;-69
2022/08/11 09:05:06;;;;;;;10.40;7.87;;;;;;;19.54;100.00;100392.86;1745736;82;21099;-69
2022/08/11 09:07:33;;;;;;;10.68;7.78;;;;;;;19.67;100.00;100391.04;1745638;82;21151;-68
2022/08/11 09:09:59;;;;;;;12.35;8.50;;;;;;;19.84;100.00;100385.84;1745832;82;21057;-69
2022/08/11 09:12:28;;;;;;;10.13;7.97;;;;;;;20.08;100.00;100386.77;1745749;82;21001;-68
2022/08/11 09:15:05;;;;;;;9.25;8.23;;;;;;;20.33;100.00;100384.45;1746019;82;21046;-69
2022/08/11 09:17:42;;;;;;;13.58;8.15;;;;;;;20.63;100.00;100376.48;1750175;80;21053;-70
2022/08/11 09:20:19;;;;;;;11.53;7.17;;;;;;;21.10;100.00;100388.09;1776623;80;21106;-69
2022/08/11 09:28:20;;;;;;;9.20;7.35;;;;;;;22.58;100.00;100370.97;1776495;80;21025;-68
2022/08/11 09:30:52;;;;;;;6.97;6.17;;;;;;;23.21;100.00;100354.90;1748985;80;21042;-69
2022/08/11 09:33:19;;;;;;;10.60;6.97;;;;;;;23.80;100.00;100356.06;1776509;80;21803;-69
2022/08/11 09:35:47;;;;;;;7.15;6.33;;;;;;;24.14;100.00;100363.80;1776831;80;21025;-69
2022/08/11 09:40:50;;;;;;;7.03;6.33;;;;;;;24.63;99.25;100367.41;1736772;80;21498;-68
2022/08/11 09:46:04;;;;;;;7.30;6.60;;;;;;;25.02;96.25;100380.85;1776558;80;21138;-69
2022/08/11 09:48:39;;;;;;;10.45;6.90;;;;;;;25.28;93.48;100383.80;1776592;80;21490;-71
2022/08/11 09:51:08;;;;;;;7.95;6.22;;;;;;;25.54;93.43;100379.98;1776512;80;21475;-70
2022/08/11 09:53:38;;;;;;;6.65;6.03;;;;;;;25.82;91.10;100378.66;1732463;82;22023;-70
2022/08/11 09:58:56;;;;;;;7.08;6.25;;;;;;;26.74;89.19;100366.88;1745779;82;22596;-69
2022/08/11 10:01:26;;;;;;;6.83;6.12;;;;;;;27.20;84.56;100370.29;1745321;82;21005;-69
2022/08/11 10:04:09;;;;;;;5.90;5.30;;;;;;;27.42;81.18;100374.30;1745733;82;20989;-69
2022/08/11 10:09:23;;;;;;;5.90;5.30;;;;;;;27.99;80.39;100377.81;1745538;82;21025;-70
2022/08/11 10:11:54;;;;;;;5.80;5.30;;;;;;;28.19;79.58;100364.34;1745605;82;21084;-70
2022/08/11 10:17:08;;;;;;;8.75;6.60;;;;;;;28.74;75.11;100363.44;1745418;82;21076;-69
2022/08/11 10:19:36;;;;;;;8.00;5.72;;;;;;;28.73;73.83;100359.02;1745885;82;28391;-70
2022/08/11 10:27:42;;;;;;;5.80;5.22;;;;;;;28.48;69.43;100354.94;1745616;82;21080;-68
2022/08/11 10:35:41;;;;;;;6.97;5.17;;;;;;;28.94;67.80;100360.73;1745811;82;21044;-70
2022/08/11 10:38:07;;;;;;;8.70;5.10;;;;;;;29.13;67.05;100358.70;1745670;82;21307;-69
2022/08/11 10:40:39;;;;;;;10.50;5.50;;;;;;;29.15;66.58;100355.28;1746122;82;21558;-71
2022/08/11 10:43:09;;;;;;;6.20;5.60;;;;;;;29.26;67.00;100355.80;1745926;82;21021;-69
2022/08/11 10:48:24;;;;;;;8.68;5.97;;;;;;;29.36;64.70;100351.53;1745900;82;21080;-69
2022/08/11 10:59:09;;;;;;;5.65;5.05;;;;;;;29.37;64.67;100350.49;1776629;80;21037;-70
2022/08/11 11:01:39;;;;;;;9.58;5.62;;;;;;;29.57;64.41;100352.83;1776866;80;21067;-70
2022/08/11 11:04:19;;;;;;;8.70;5.47;;;;;;;29.71;63.68;100352.12;1776690;80;21845;-70
2022/08/11 11:07:19;;;;;;;6.58;5.20;;;;;;;29.81;62.92;100346.47;1774942;80;21077;-70
2022/08/11 11:09:52;;;;;;;11.33;5.43;;;;;;;29.87;63.06;100349.33;1776793;80;21033;-70
2022/08/11 11:18:13;;;;;;;11.70;5.03;;;;;;;29.63;63.03;100333.11;1776428;80;21247;-69
2022/08/11 11:20:58;;;;;;;6.75;5.45;;;;;;;29.73;59.50;100335.15;1775576;80;21586;-69
2022/08/11 11:23:46;;;;;;;5.90;5.12;;;;;;;29.73;59.50;100335.15;1776536;80;20966;-69
2022/08/11 11:26:51;;;;;;;5.75;5.25;;;;;;;29.69;60.01;100335.16;1776376;80;21092;-69
2022/08/11 11:29:41;;;;;;;8.35;5.75;;;;;;;29.78;59.57;100342.24;1776466;80;21148;-70
2022/08/11 11:32:30;;;;;;;5.20;4.67;;;;;;;29.72;59.64;100340.23;1775987;80;21181;-69
2022/08/11 11:35:43;;;;;;;6.67;5.00;;;;;;;29.57;61.10;100331.12;1776363;80;21048;-69
2022/08/11 11:38:10;;;;;;;7.87;5.50;;;;;;;29.55;61.20;100334.52;1776638;80;21045;-69
2022/08/11 11:40:37;;;;;;;11.30;5.40;;;;;;;29.58;60.45;100332.28;1776874;80;21016;-68
2022/08/11 11:43:04;;;;;;;7.08;5.28;;;;;;;29.67;61.32;100327.67;1776636;80;21015;-70
2022/08/11 11:45:31;;;;;;;6.15;5.55;;;;;;;29.62;59.71;100328.72;1776551;80;21582;-68
2022/08/11 11:47:59;;;;;;;6.55;5.62;;;;;;;29.48;59.94;100332.48;1776538;80;21013;-69
2022/08/11 11:50:33;;;;;;;7.22;5.95;;;;;;;29.34;60.04;100334.58;1776526;80;21093;-69
2022/08/11 11:53:05;;;;;;;6.75;6.12;;;;;;;29.30;60.27;100326.96;1776855;80;21006;-69
2022/08/11 11:55:32;;;;;;;6.35;5.75;;;;;;;29.11;62.12;100326.84;1749422;80;21408;-68
2022/08/11 12:03:31;;;;;;;7.47;5.58;;;;;;;29.66;59.24;100332.77;1753081;80;21485;-70
2022/08/11 12:05:57;;;;;;;8.90;5.60;;;;;;;29.56;58.12;100324.82;1776627;80;21029;-70
2022/08/11 12:08:24;;;;;;;7.28;6.15;;;;;;;29.54;57.86;100324.66;1776733;80;21095;-70
2022/08/11 12:13:51;;;;;;;11.55;5.97;;;;;;;29.63;57.94;100329.04;1776717;80;21069;-70
2022/08/11 12:16:19;;;;;;;8.20;6.12;;;;;;;29.72;57.18;100331.24;1749074;80;21012;-72
2022/08/11 12:18:48;;;;;;;9.40;6.60;;;;;;;29.52;58.22;100328.93;1776851;80;21080;-69
2022/08/11 12:21:15;;;;;;;9.20;6.83;;;;;;;29.21;59.45;100329.69;1776534;80;21080;-70
2022/08/11 12:29:18;;;;;;;11.60;6.28;;;;;;;28.71;59.17;100340.73;1752444;80;21019;-69
2022/08/11 12:31:45;;;;;;;10.45;7.12;;;;;;;28.66;59.43;100350.20;1776871;80;21009;-69
2022/08/11 12:34:14;;;;;;;14.80;7.28;;;;;;;28.52;60.18;100352.23;1776760;80;21104;-70
2022/08/11 12:36:57;;;;;;;9.43;7.55;;;;;;;28.36;61.17;100351.67;1776805;80;21109;-70
2022/08/11 12:53:26;;;;;;;10.45;8.05;;;;;;;26.63;67.96;100359.00;1760500;80;21045;-70
2022/08/11 12:58:41;;;;;;;13.05;8.55;;;;;;;26.66;68.14;100364.08;1742595;82;21014;-69
2022/08/11 13:06:39;;;;;;;11.40;9.10;;;;;;;26.71;69.15;100372.56;1742712;82;21037;-68
2022/08/11 13:09:06;;;;;;;15.28;10.15;;;;;;;26.74;68.91;100369.57;1742672;82;21037;-71
2022/08/11 13:14:18;;;;;;;11.30;10.13;;;;;;;26.69;68.94;100366.50;1742641;82;21054;-69
2022/08/11 13:19:29;;;;;;;15.25;9.28;;;;;;;26.57;69.28;100355.92;1742293;82;21601;-70
2022/08/11 13:21:56;;;;;;;13.53;10.23;;;;;;;26.26;70.79;100358.11;1742841;82;21025;-69
2022/08/11 13:24:22;;;;;;;15.90;10.50;;;;;;;26.17;71.55;100357.67;1742765;82;21149;-70
2022/08/11 13:26:49;;;;;;;11.90;9.73;;;;;;;26.16;72.46;100350.08;1742966;82;21025;-69
2022/08/11 13:29:19;;;;;;;16.05;10.50;;;;;;;26.05;72.81;100344.90;1742528;82;21216;-71
2022/08/11 13:31:46;;;;;;;13.62;10.60;;;;;;;25.96;73.85;100343.11;1741892;82;21312;-69
2022/08/11 13:34:14;;;;;;;15.10;11.75;;;;;;;25.93;73.82;100344.77;1742822;82;21045;-70
2022/08/11 13:36:41;;;;;;;14.33;11.22;;;;;;;25.89;74.10;100333.42;1721966;82;21124;-70
2022/08/11 13:39:08;;;;;;;17.25;12.20;;;;;;;25.98;74.38;100336.22;1697842;82;21054;-69
2022/08/11 13:41:43;;;;;;;11.38;10.28;;;;;;;25.99;74.59;100340.09;1721788;82;22109;-70
2022/08/11 13:44:13;;;;;;;16.15;9.80;;;;;;;25.87;74.42;100339.97;1742831;82;21038;-69
2022/08/11 13:46:39;;;;;;;;;;;;;;;25.74;75.43;100345.19;1745144;82;21026;-68
2022/08/11 13:49:07;;;;;;;10.82;9.73;;;;;;;25.74;76.37;100346.54;1742848;82;20205;-70
2022/08/11 13:51:38;;;;;;;15.28;9.85;;;;;;;25.69;76.68;100335.83;1721831;82;21053;-69
2022/08/11 13:54:11;;;;;;;15.60;11.30;;;;;;;25.69;76.75;100335.33;1764173;81;21131;-69
2022/08/11 13:56:41;;;;;;;19.82;10.82;;;;;;;25.67;77.84;100333.27;1705112;83;21077;-69
2022/08/11 13:59:08;;;;;;;11.05;10.00;;;;;;;25.67;78.13;100331.92;1771590;81;21057;-69
2022/08/11 14:01:39;;;;;;;13.48;11.20;;;;;;;25.67;78.59;100325.19;1705521;83;21075;-69
2022/08/11 14:04:13;;;;;;;19.98;10.63;;;;;;;25.67;78.56;100327.88;1771767;81;21311;-69
2022/08/11 14:06:44;;;;;;;40.20;12.37;;;;;;;25.67;79.34;100332.44;1772271;81;21119;-69
2022/08/11 14:09:15;;;;;;;13.30;10.00;;;;;;;25.68;79.30;100326.91;1771847;81;21025;-69
2022/08/11 14:14:32;;;;;;;12.13;10.80;;;;;;;25.78;79.35;100317.91;1771848;81;21641;-69
2022/08/11 14:17:06;;;;;;;12.18;9.53;;;;;;;25.79;79.95;100322.29;1771940;81;21732;-69
2022/08/11 14:19:40;;;;;;;12.30;10.50;;;;;;;25.72;79.76;100329.66;1771693;81;21156;-69
2022/08/11 14:22:06;;;;;;;16.32;10.45;;;;;;;25.66;80.84;100326.20;1772131;81;21037;-70
2022/08/11 14:24:40;;;;;;;15.53;10.70;;;;;;;25.64;81.63;100326.00;1771609;81;21054;-68
2022/08/11 14:27:10;;;;;;;11.55;9.90;;;;;;;25.60;81.65;100321.39;1705719;83;21101;-69
2022/08/11 14:29:40;;;;;;;16.42;10.18;;;;;;;25.62;81.46;100325.30;1771811;81;21026;-70
2022/08/11 14:32:09;;;;;;;13.50;10.35;;;;;;;25.55;82.10;100330.44;1771934;81;21080;-69
2022/08/11 14:34:40;;;;;;;16.80;10.28;;;;;;;25.48;82.89;100325.29;1705450;84;21828;-69
2022/08/11 14:37:16;;;;;;;12.35;10.38;;;;;;;25.48;82.69;100323.94;1772181;81;21582;-69
2022/08/11 14:39:53;;;;;;;13.40;10.05;;;;;;;25.45;83.38;100327.78;1750925;81;22030;-69
2022/08/11 14:48:04;;;;;;;14.40;10.25;;;;;;;25.39;84.05;100319.44;1688169;84;21045;-70
2022/08/11 14:50:32;;;;;;;12.75;9.50;;;;;;;25.40;84.74;100322.47;1771746;81;21057;-69
2022/08/11 14:53:07;;;;;;;14.78;10.25;;;;;;;25.38;84.34;100321.29;1763618;81;21038;-68
2022/08/11 14:58:28;;;;;;;15.72;9.80;;;;;;;25.39;85.20;100318.09;1742739;82;21248;-69
2022/08/11 15:00:58;;;;;;;12.25;10.13;;;;;;;25.44;84.77;100321.19;1742909;81;21093;-69
2022/08/11 15:03:28;;;;;;;16.17;9.40;;;;;;;25.38;84.75;100313.71;1742850;82;28336;-69
2022/08/11 15:06:01;;;;;;;11.53;9.70;;;;;;;25.31;85.10;100316.98;1743204;82;21042;-70
2022/08/11 15:14:09;;;;;;;10.53;9.38;;;;;;;25.29;85.94;100314.93;1742720;82;21676;-69
2022/08/11 15:19:24;;;;;;;11.15;9.65;;;;;;;25.43;85.60;100319.50;1734005;82;21038;-69
2022/08/11 15:24:36;;;;;;;12.37;9.18;;;;;;;25.50;84.87;100319.25;1742514;82;21545;-70
2022/08/11 15:38:14;;;;;;;12.30;8.85;;;;;;;26.07;82.35;100320.47;1742887;82;21089;-70
2022/08/11 15:46:41;;;;;;;9.90;8.50;;;;;;;26.35;80.72;100319.90;1745721;82;21584;-69
2022/08/11 15:49:21;;;;;;;13.13;9.43;;;;;;;26.38;80.42;100320.93;1750542;82;21104;-69
2022/08/11 15:51:58;;;;;;;11.48;9.00;;;;;;;26.39;79.86;100310.49;1750518;82;21549;-68
2022/08/11 15:54:29;;;;;;;22.07;9.85;;;;;;;26.35;80.59;100311.80;1750415;82;21123;-69
2022/08/11 15:56:57;;;;;;;;;;;;;;;26.31;81.06;100317.16;1753152;82;21580;-69
2022/08/11 16:04:47;;;;;;;14.23;9.05;;;;;;;26.20;81.95;100315.52;1840211;77;22374;-69
2022/08/11 16:07:24;;;;;;;13.68;9.00;;;;;;;26.10;82.82;100312.06;1815870;79;21587;-68
2022/08/11 16:10:08;;;;;;;12.82;9.53;;;;;;;26.01;83.89;100312.97;1815046;79;21103;-69
2022/08/11 16:12:40;;;;;;;11.33;9.48;;;;;;;25.94;84.55;100312.73;1815581;79;21029;-71
2022/08/11 16:18:02;;;;;;;14.70;9.80;;;;;;;25.83;85.33;100311.05;1779764;80;21029;-69
2022/08/11 16:20:29;;;;;;;12.15;10.15;;;;;;;25.72;85.86;100306.73;1779528;80;21045;-69
2022/08/11 16:22:59;;;;;;;13.25;9.65;;;;;;;25.61;85.73;100309.62;1779443;80;21145;-69
2022/08/11 16:25:26;;;;;;;17.02;10.68;;;;;;;25.49;87.15;100304.05;1749231;82;21039;-69
2022/08/11 16:27:59;;;;;;;14.93;9.45;;;;;;;25.37;88.15;100303.91;1779726;80;21522;-70
2022/08/11 16:30:27;;;;;;;11.73;10.20;;;;;;;25.26;88.83;100304.45;1749070;82;21120;-69
2022/08/11 16:32:53;;;;;;;12.03;9.98;;;;;;;25.19;89.73;100304.70;1779837;80;21097;-68
2022/08/11 16:40:54;;;;;;;12.00;10.05;;;;;;;24.91;92.56;100307.30;1780075;80;21022;-70
2022/08/11 16:48:53;;;;;;;16.60;10.60;;;;;;;24.61;94.79;100307.46;1779646;80;21221;-69
2022/08/11 16:51:19;;;;;;;14.23;11.28;;;;;;;24.50;95.85;100305.77;1779905;80;21053;-69
2022/08/11 16:53:47;;;;;;;13.32;10.90;;;;;;;24.42;96.28;100310.48;1779669;80;21077;-69
2022/08/11 16:56:46;;;;;;;22.07;11.63;;;;;;;24.36;96.88;100309.70;1774091;80;21164;-69